sensor_id;sensor_type;location;lat;lon;timestamp;P1;durP1;ratioP1;P2;durP2;ratioP2
5762;SDS011;2906;53.282;9.508;2023-08-07T00:00:14;6.90;;;3.20;;
5762;SDS011;2906;53.282;9.508;2023-08-07T00:01:16;7.32;;;3.78;;
5762;SDS011;2906;53.282;9.508;2023-08-07T00:02:18;6.65;;;3.50;;
5762;SDS011;2906;53.282;9.508;2023-08-07T00:03:19;7.82;;;4.15;;
5762;SDS011;2906;53.282;9.508;2023-08-07T00:04:23;7.18;;;2.83;;
5762;SDS011;2906;53.282;9.508;2023-08-07T00:05:24;6.00;;;3.55;;
5762;SDS011;2906;53.282;9.508;2023-08-07T00:06:26;6.78;;;3.33;;
5762;SDS011;2906;53.282;9.508;2023-08-07T00:07:28;12.63;;;3.97;;
5762;SDS011;2906;53.282;9.508;2023-08-07T00:08:30;9.82;;;3.72;;
5762;SDS011;2906;53.282;9.508;2023-08-07T00:09:31;9.40;;;3.78;;
5762;SDS011;2906;53.282;9.508;2023-08-07T00:10:34;8.05;;;3.60;;
5762;SDS011;2906;53.282;9.508;2023-08-07T00:11:35;6.45;;;3.25;;
5762;SDS011;2906;53.282;9.508;2023-08-07T00:12:37;9.05;;;4.00;;
5762;SDS011;2906;53.282;9.508;2023-08-07T00:13:38;6.30;;;3.72;;
5762;SDS011;2906;53.282;9.508;2023-08-07T00:14:41;5.50;;;3.45;;
5762;SDS011;2906;53.282;9.508;2023-08-07T00:15:42;7.28;;;4.03;;
5762;SDS011;2906;53.282;9.508;2023-08-07T00:16:44;11.88;;;3.53;;
5762;SDS011;2906;53.282;9.508;2023-08-07T00:17:46;10.55;;;3.67;;
5762;SDS011;2906;53.282;9.508;2023-08-07T00:18:48;8.25;;;3.72;;
5762;SDS011;2906;53.282;9.508;2023-08-07T00:19:51;7.25;;;3.28;;
5762;SDS011;2906;53.282;9.508;2023-08-07T00:20:53;4.18;;;3.05;;
5762;SDS011;2906;53.282;9.508;2023-08-07T00:21:54;8.13;;;3.25;;
5762;SDS011;2906;53.282;9.508;2023-08-07T00:22:56;7.57;;;3.42;;
5762;SDS011;2906;53.282;9.508;2023-08-07T00:23:58;6.07;;;3.10;;
5762;SDS011;2906;53.282;9.508;2023-08-07T00:25:00;10.65;;;3.28;;
5762;SDS011;2906;53.282;9.508;2023-08-07T00:26:01;5.28;;;3.53;;
5762;SDS011;2906;53.282;9.508;2023-08-07T00:27:04;7.25;;;4.00;;
5762;SDS011;2906;53.282;9.508;2023-08-07T00:28:06;5.20;;;3.05;;
5762;SDS011;2906;53.282;9.508;2023-08-07T00:29:08;10.65;;;3.17;;
5762;SDS011;2906;53.282;9.508;2023-08-07T00:30:10;10.45;;;3.22;;
5762;SDS011;2906;53.282;9.508;2023-08-07T00:31:12;7.38;;;3.42;;
5762;SDS011;2906;53.282;9.508;2023-08-07T00:32:14;10.60;;;4.00;;
5762;SDS011;2906;53.282;9.508;2023-08-07T00:33:15;13.05;;;3.85;;
5762;SDS011;2906;53.282;9.508;2023-08-07T00:34:17;6.50;;;2.92;;
5762;SDS011;2906;53.282;9.508;2023-08-07T00:35:20;9.02;;;3.40;;
5762;SDS011;2906;53.282;9.508;2023-08-07T00:36:22;13.23;;;3.28;;
5762;SDS011;2906;53.282;9.508;2023-08-07T00:37:24;6.97;;;3.08;;
5762;SDS011;2906;53.282;9.508;2023-08-07T00:38:26;4.65;;;3.30;;
5762;SDS011;2906;53.282;9.508;2023-08-07T00:39:27;4.35;;;3.17;;
5762;SDS011;2906;53.282;9.508;2023-08-07T00:40:35;8.05;;;3.15;;
5762;SDS011;2906;53.282;9.508;2023-08-07T00:41:37;5.70;;;3.38;;
5762;SDS011;2906;53.282;9.508;2023-08-07T00:42:39;9.02;;;3.60;;
5762;SDS011;2906;53.282;9.508;2023-08-07T00:43:40;9.23;;;3.63;;
5762;SDS011;2906;53.282;9.508;2023-08-07T00:44:42;10.02;;;3.35;;
5762;SDS011;2906;53.282;9.508;2023-08-07T00:45:45;12.27;;;3.35;;
5762;SDS011;2906;53.282;9.508;2023-08-07T00:46:47;7.07;;;3.25;;
5762;SDS011;2906;53.282;9.508;2023-08-07T00:47:49;8.77;;;3.47;;
5762;SDS011;2906;53.282;9.508;2023-08-07T00:48:51;9.18;;;3.20;;
5762;SDS011;2906;53.282;9.508;2023-08-07T00:49:53;4.35;;;2.90;;
5762;SDS011;2906;53.282;9.508;2023-08-07T00:50:56;7.00;;;3.30;;
5762;SDS011;2906;53.282;9.508;2023-08-07T00:51:58;8.40;;;3.22;;
5762;SDS011;2906;53.282;9.508;2023-08-07T00:52:59;15.07;;;3.75;;
5762;SDS011;2906;53.282;9.508;2023-08-07T00:54:02;4.30;;;3.15;;
5762;SDS011;2906;53.282;9.508;2023-08-07T00:55:05;5.78;;;3.22;;
5762;SDS011;2906;53.282;9.508;2023-08-07T00:56:06;7.93;;;3.58;;
5762;SDS011;2906;53.282;9.508;2023-08-07T00:57:10;18.83;;;3.58;;
5762;SDS011;2906;53.282;9.508;2023-08-07T00:58:12;6.07;;;2.88;;
5762;SDS011;2906;53.282;9.508;2023-08-07T00:59:15;8.80;;;2.78;;
5762;SDS011;2906;53.282;9.508;2023-08-07T01:00:18;6.40;;;3.50;;
5762;SDS011;2906;53.282;9.508;2023-08-07T01:01:20;6.20;;;3.05;;
5762;SDS011;2906;53.282;9.508;2023-08-07T01:02:22;8.13;;;3.20;;
5762;SDS011;2906;53.282;9.508;2023-08-07T01:03:36;3.35;;;2.83;;
5762;SDS011;2906;53.282;9.508;2023-08-07T01:04:38;4.45;;;2.95;;
5762;SDS011;2906;53.282;9.508;2023-08-07T01:05:40;9.60;;;3.15;;
5762;SDS011;2906;53.282;9.508;2023-08-07T01:06:46;13.60;;;3.45;;
5762;SDS011;2906;53.282;9.508;2023-08-07T01:07:49;6.07;;;2.60;;
5762;SDS011;2906;53.282;9.508;2023-08-07T01:08:54;12.15;;;3.30;;
5762;SDS011;2906;53.282;9.508;2023-08-07T01:09:59;9.30;;;3.33;;
5762;SDS011;2906;53.282;9.508;2023-08-07T01:11:07;6.00;;;2.78;;
5762;SDS011;2906;53.282;9.508;2023-08-07T01:12:17;6.45;;;2.80;;
5762;SDS011;2906;53.282;9.508;2023-08-07T01:13:23;4.05;;;3.00;;
5762;SDS011;2906;53.282;9.508;2023-08-07T01:14:29;7.47;;;3.00;;
5762;SDS011;2906;53.282;9.508;2023-08-07T01:15:34;4.70;;;3.00;;
5762;SDS011;2906;53.282;9.508;2023-08-07T01:16:43;5.55;;;2.90;;
5762;SDS011;2906;53.282;9.508;2023-08-07T01:17:46;6.80;;;3.30;;
5762;SDS011;2906;53.282;9.508;2023-08-07T01:18:52;8.50;;;2.85;;
5762;SDS011;2906;53.282;9.508;2023-08-07T01:19:58;6.38;;;4.05;;
5762;SDS011;2906;53.282;9.508;2023-08-07T01:21:04;5.97;;;2.63;;
5762;SDS011;2906;53.282;9.508;2023-08-07T01:22:08;9.15;;;3.08;;
5762;SDS011;2906;53.282;9.508;2023-08-07T01:23:11;6.53;;;3.05;;
5762;SDS011;2906;53.282;9.508;2023-08-07T01:24:14;9.52;;;3.50;;
5762;SDS011;2906;53.282;9.508;2023-08-07T01:25:17;7.65;;;3.20;;
5762;SDS011;2906;53.282;9.508;2023-08-07T01:26:22;9.90;;;3.50;;
5762;SDS011;2906;53.282;9.508;2023-08-07T01:27:28;7.03;;;2.53;;
5762;SDS011;2906;53.282;9.508;2023-08-07T01:28:36;7.95;;;2.78;;
5762;SDS011;2906;53.282;9.508;2023-08-07T01:29:40;8.93;;;3.20;;
5762;SDS011;2906;53.282;9.508;2023-08-07T01:30:50;8.57;;;3.45;;
5762;SDS011;2906;53.282;9.508;2023-08-07T01:31:59;7.32;;;3.10;;
5762;SDS011;2906;53.282;9.508;2023-08-07T01:33:05;7.40;;;3.15;;
5762;SDS011;2906;53.282;9.508;2023-08-07T01:34:09;4.55;;;3.00;;
5762;SDS011;2906;53.282;9.508;2023-08-07T01:35:14;12.70;;;3.50;;
5762;SDS011;2906;53.282;9.508;2023-08-07T01:36:18;12.48;;;3.03;;
5762;SDS011;2906;53.282;9.508;2023-08-07T01:37:23;8.77;;;2.63;;
5762;SDS011;2906;53.282;9.508;2023-08-07T01:38:29;10.38;;;3.30;;
5762;SDS011;2906;53.282;9.508;2023-08-07T01:39:36;12.02;;;3.05;;
5762;SDS011;2906;53.282;9.508;2023-08-07T01:40:39;8.98;;;3.47;;
5762;SDS011;2906;53.282;9.508;2023-08-07T01:41:42;11.93;;;3.67;;
5762;SDS011;2906;53.282;9.508;2023-08-07T01:42:44;5.55;;;2.90;;
5762;SDS011;2906;53.282;9.508;2023-08-07T01:43:48;6.57;;;3.45;;
5762;SDS011;2906;53.282;9.508;2023-08-07T01:44:50;4.40;;;2.47;;
5762;SDS011;2906;53.282;9.508;2023-08-07T01:45:53;6.18;;;2.70;;
5762;SDS011;2906;53.282;9.508;2023-08-07T01:46:56;8.43;;;2.70;;
5762;SDS011;2906;53.282;9.508;2023-08-07T01:47:58;6.07;;;3.20;;
5762;SDS011;2906;53.282;9.508;2023-08-07T01:49:02;5.13;;;3.20;;
5762;SDS011;2906;53.282;9.508;2023-08-07T01:50:04;9.25;;;3.20;;
5762;SDS011;2906;53.282;9.508;2023-08-07T01:51:14;6.30;;;2.50;;
5762;SDS011;2906;53.282;9.508;2023-08-07T01:52:15;11.52;;;3.60;;
5762;SDS011;2906;53.282;9.508;2023-08-07T01:53:21;9.73;;;2.60;;
5762;SDS011;2906;53.282;9.508;2023-08-07T01:54:26;7.78;;;3.17;;
5762;SDS011;2906;53.282;9.508;2023-08-07T01:55:29;9.60;;;3.95;;
5762;SDS011;2906;53.282;9.508;2023-08-07T01:56:34;11.05;;;3.10;;
5762;SDS011;2906;53.282;9.508;2023-08-07T01:57:37;5.20;;;3.38;;
5762;SDS011;2906;53.282;9.508;2023-08-07T01:58:38;8.82;;;3.13;;
5762;SDS011;2906;53.282;9.508;2023-08-07T01:59:42;11.27;;;3.00;;
5762;SDS011;2906;53.282;9.508;2023-08-07T02:00:45;14.85;;;3.38;;
5762;SDS011;2906;53.282;9.508;2023-08-07T02:01:48;7.82;;;3.20;;
5762;SDS011;2906;53.282;9.508;2023-08-07T02:02:50;6.22;;;2.97;;
5762;SDS011;2906;53.282;9.508;2023-08-07T02:03:53;5.97;;;3.00;;
5762;SDS011;2906;53.282;9.508;2023-08-07T02:04:54;12.73;;;3.15;;
5762;SDS011;2906;53.282;9.508;2023-08-07T02:05:58;9.13;;;2.58;;
5762;SDS011;2906;53.282;9.508;2023-08-07T02:07:01;7.97;;;3.40;;
5762;SDS011;2906;53.282;9.508;2023-08-07T02:08:05;12.57;;;3.30;;
5762;SDS011;2906;53.282;9.508;2023-08-07T02:09:07;5.82;;;3.05;;
5762;SDS011;2906;53.282;9.508;2023-08-07T02:10:10;11.32;;;3.50;;
5762;SDS011;2906;53.282;9.508;2023-08-07T02:11:11;8.57;;;3.22;;
5762;SDS011;2906;53.282;9.508;2023-08-07T02:12:13;7.38;;;3.00;;
5762;SDS011;2906;53.282;9.508;2023-08-07T02:13:14;7.93;;;2.53;;
5762;SDS011;2906;53.282;9.508;2023-08-07T02:14:17;8.73;;;3.25;;
5762;SDS011;2906;53.282;9.508;2023-08-07T02:15:18;7.72;;;2.80;;
5762;SDS011;2906;53.282;9.508;2023-08-07T02:16:20;12.52;;;3.58;;
5762;SDS011;2906;53.282;9.508;2023-08-07T02:17:22;13.25;;;2.72;;
5762;SDS011;2906;53.282;9.508;2023-08-07T02:18:23;3.95;;;2.90;;
5762;SDS011;2906;53.282;9.508;2023-08-07T02:19:25;6.72;;;3.65;;
5762;SDS011;2906;53.282;9.508;2023-08-07T02:20:26;4.88;;;3.00;;
5762;SDS011;2906;53.282;9.508;2023-08-07T02:21:28;6.13;;;3.10;;
5762;SDS011;2906;53.282;9.508;2023-08-07T02:22:30;5.30;;;3.40;;
5762;SDS011;2906;53.282;9.508;2023-08-07T02:23:31;14.18;;;3.88;;
5762;SDS011;2906;53.282;9.508;2023-08-07T02:24:35;6.53;;;2.90;;
5762;SDS011;2906;53.282;9.508;2023-08-07T02:25:37;10.45;;;2.97;;
5762;SDS011;2906;53.282;9.508;2023-08-07T02:26:39;10.93;;;3.50;;
5762;SDS011;2906;53.282;9.508;2023-08-07T02:27:42;5.25;;;3.10;;
5762;SDS011;2906;53.282;9.508;2023-08-07T02:28:48;4.35;;;2.90;;
5762;SDS011;2906;53.282;9.508;2023-08-07T02:29:50;10.65;;;3.20;;
5762;SDS011;2906;53.282;9.508;2023-08-07T02:30:52;4.40;;;2.90;;
5762;SDS011;2906;53.282;9.508;2023-08-07T02:31:55;4.20;;;2.70;;
5762;SDS011;2906;53.282;9.508;2023-08-07T02:32:59;4.47;;;3.20;;
5762;SDS011;2906;53.282;9.508;2023-08-07T02:34:01;8.32;;;2.83;;
5762;SDS011;2906;53.282;9.508;2023-08-07T02:35:04;7.38;;;3.10;;
5762;SDS011;2906;53.282;9.508;2023-08-07T02:36:05;7.15;;;3.55;;
5762;SDS011;2906;53.282;9.508;2023-08-07T02:37:08;7.50;;;3.28;;
5762;SDS011;2906;53.282;9.508;2023-08-07T02:38:10;5.28;;;3.35;;
5762;SDS011;2906;53.282;9.508;2023-08-07T02:39:16;3.05;;;2.75;;
5762;SDS011;2906;53.282;9.508;2023-08-07T02:40:20;13.05;;;3.30;;
5762;SDS011;2906;53.282;9.508;2023-08-07T02:41:23;4.45;;;2.58;;
5762;SDS011;2906;53.282;9.508;2023-08-07T02:42:26;11.32;;;3.40;;
5762;SDS011;2906;53.282;9.508;2023-08-07T02:43:27;11.93;;;3.35;;
5762;SDS011;2906;53.282;9.508;2023-08-07T02:44:33;5.15;;;2.90;;
5762;SDS011;2906;53.282;9.508;2023-08-07T02:45:38;6.70;;;2.97;;
5762;SDS011;2906;53.282;9.508;2023-08-07T02:46:41;10.48;;;3.70;;
5762;SDS011;2906;53.282;9.508;2023-08-07T02:47:43;4.30;;;3.08;;
5762;SDS011;2906;53.282;9.508;2023-08-07T02:48:47;8.00;;;3.25;;
5762;SDS011;2906;53.282;9.508;2023-08-07T02:49:48;7.88;;;3.35;;
5762;SDS011;2906;53.282;9.508;2023-08-07T02:50:52;5.50;;;3.20;;
5762;SDS011;2906;53.282;9.508;2023-08-07T02:52:00;8.75;;;3.20;;
5762;SDS011;2906;53.282;9.508;2023-08-07T02:53:03;14.95;;;3.50;;
5762;SDS011;2906;53.282;9.508;2023-08-07T02:54:05;5.13;;;3.35;;
5762;SDS011;2906;53.282;9.508;2023-08-07T02:55:08;5.75;;;3.42;;
5762;SDS011;2906;53.282;9.508;2023-08-07T02:56:10;10.52;;;3.70;;
5762;SDS011;2906;53.282;9.508;2023-08-07T02:57:13;10.45;;;3.88;;
5762;SDS011;2906;53.282;9.508;2023-08-07T02:58:14;13.73;;;3.80;;
5762;SDS011;2906;53.282;9.508;2023-08-07T02:59:17;6.45;;;3.45;;
5762;SDS011;2906;53.282;9.508;2023-08-07T03:00:19;9.20;;;3.90;;
5762;SDS011;2906;53.282;9.508;2023-08-07T03:01:22;6.55;;;3.83;;
5762;SDS011;2906;53.282;9.508;2023-08-07T03:02:24;11.60;;;4.20;;
5762;SDS011;2906;53.282;9.508;2023-08-07T03:03:29;14.38;;;4.85;;
5762;SDS011;2906;53.282;9.508;2023-08-07T03:04:30;7.28;;;3.70;;
5762;SDS011;2906;53.282;9.508;2023-08-07T03:05:48;6.57;;;3.30;;
5762;SDS011;2906;53.282;9.508;2023-08-07T03:06:50;4.25;;;3.20;;
5762;SDS011;2906;53.282;9.508;2023-08-07T03:07:55;4.55;;;3.72;;
5762;SDS011;2906;53.282;9.508;2023-08-07T03:09:00;5.20;;;3.25;;
5762;SDS011;2906;53.282;9.508;2023-08-07T03:10:05;9.60;;;3.25;;
5762;SDS011;2906;53.282;9.508;2023-08-07T03:11:07;8.32;;;3.60;;
5762;SDS011;2906;53.282;9.508;2023-08-07T03:12:11;4.97;;;3.15;;
5762;SDS011;2906;53.282;9.508;2023-08-07T03:13:14;3.45;;;2.95;;
5762;SDS011;2906;53.282;9.508;2023-08-07T03:14:17;5.50;;;3.20;;
5762;SDS011;2906;53.282;9.508;2023-08-07T03:15:25;7.07;;;3.08;;
5762;SDS011;2906;53.282;9.508;2023-08-07T03:16:30;8.40;;;3.30;;
5762;SDS011;2906;53.282;9.508;2023-08-07T03:17:34;9.93;;;3.80;;
5762;SDS011;2906;53.282;9.508;2023-08-07T03:18:39;5.15;;;3.30;;
5762;SDS011;2906;53.282;9.508;2023-08-07T03:19:43;9.35;;;3.10;;
5762;SDS011;2906;53.282;9.508;2023-08-07T03:20:45;6.57;;;3.70;;
5762;SDS011;2906;53.282;9.508;2023-08-07T03:21:48;3.88;;;3.42;;
5762;SDS011;2906;53.282;9.508;2023-08-07T03:22:51;5.55;;;2.90;;
5762;SDS011;2906;53.282;9.508;2023-08-07T03:23:54;4.25;;;2.85;;
5762;SDS011;2906;53.282;9.508;2023-08-07T03:24:56;5.72;;;3.33;;
5762;SDS011;2906;53.282;9.508;2023-08-07T03:26:02;5.75;;;3.10;;
5762;SDS011;2906;53.282;9.508;2023-08-07T03:27:04;8.27;;;3.35;;
5762;SDS011;2906;53.282;9.508;2023-08-07T03:28:10;5.05;;;2.80;;
5762;SDS011;2906;53.282;9.508;2023-08-07T03:29:12;7.72;;;2.85;;
5762;SDS011;2906;53.282;9.508;2023-08-07T03:30:14;5.10;;;2.88;;
5762;SDS011;2906;53.282;9.508;2023-08-07T03:31:16;3.50;;;3.00;;
5762;SDS011;2906;53.282;9.508;2023-08-07T03:32:19;8.82;;;3.25;;
5762;SDS011;2906;53.282;9.508;2023-08-07T03:33:21;5.95;;;2.70;;
5762;SDS011;2906;53.282;9.508;2023-08-07T03:34:27;4.88;;;2.38;;
5762;SDS011;2906;53.282;9.508;2023-08-07T03:35:30;4.68;;;2.90;;
5762;SDS011;2906;53.282;9.508;2023-08-07T03:36:34;7.13;;;2.53;;
5762;SDS011;2906;53.282;9.508;2023-08-07T03:37:37;7.53;;;2.65;;
5762;SDS011;2906;53.282;9.508;2023-08-07T03:38:38;4.75;;;2.30;;
5762;SDS011;2906;53.282;9.508;2023-08-07T03:39:40;6.43;;;2.92;;
5762;SDS011;2906;53.282;9.508;2023-08-07T03:40:43;2.50;;;2.25;;
5762;SDS011;2906;53.282;9.508;2023-08-07T03:41:46;6.35;;;2.05;;
5762;SDS011;2906;53.282;9.508;2023-08-07T03:42:47;3.95;;;2.05;;
5762;SDS011;2906;53.282;9.508;2023-08-07T03:43:50;6.18;;;2.30;;
5762;SDS011;2906;53.282;9.508;2023-08-07T03:44:52;3.20;;;1.80;;
5762;SDS011;2906;53.282;9.508;2023-08-07T03:45:54;5.20;;;2.10;;
5762;SDS011;2906;53.282;9.508;2023-08-07T03:46:56;3.95;;;2.20;;
5762;SDS011;2906;53.282;9.508;2023-08-07T03:48:05;3.97;;;1.70;;
5762;SDS011;2906;53.282;9.508;2023-08-07T03:49:07;10.88;;;2.25;;
5762;SDS011;2906;53.282;9.508;2023-08-07T03:50:09;3.30;;;2.13;;
5762;SDS011;2906;53.282;9.508;2023-08-07T03:51:11;3.90;;;2.10;;
5762;SDS011;2906;53.282;9.508;2023-08-07T03:52:16;3.58;;;1.73;;
5762;SDS011;2906;53.282;9.508;2023-08-07T03:53:18;8.65;;;2.40;;
5762;SDS011;2906;53.282;9.508;2023-08-07T03:54:20;3.78;;;1.92;;
5762;SDS011;2906;53.282;9.508;2023-08-07T03:55:21;9.85;;;2.42;;
5762;SDS011;2906;53.282;9.508;2023-08-07T03:56:24;3.22;;;2.17;;
5762;SDS011;2906;53.282;9.508;2023-08-07T03:57:25;2.00;;;1.65;;
5762;SDS011;2906;53.282;9.508;2023-08-07T03:58:27;2.33;;;1.80;;
5762;SDS011;2906;53.282;9.508;2023-08-07T03:59:30;3.30;;;1.88;;
5762;SDS011;2906;53.282;9.508;2023-08-07T04:00:32;3.80;;;1.95;;
5762;SDS011;2906;53.282;9.508;2023-08-07T04:01:33;3.90;;;2.05;;
5762;SDS011;2906;53.282;9.508;2023-08-07T04:02:36;4.78;;;2.13;;
5762;SDS011;2906;53.282;9.508;2023-08-07T04:03:37;2.45;;;1.67;;
5762;SDS011;2906;53.282;9.508;2023-08-07T04:04:38;2.63;;;1.60;;
5762;SDS011;2906;53.282;9.508;2023-08-07T04:05:40;2.47;;;2.10;;
5762;SDS011;2906;53.282;9.508;2023-08-07T04:06:42;4.00;;;1.65;;
5762;SDS011;2906;53.282;9.508;2023-08-07T04:07:44;2.70;;;1.73;;
5762;SDS011;2906;53.282;9.508;2023-08-07T04:08:46;4.10;;;1.90;;
5762;SDS011;2906;53.282;9.508;2023-08-07T04:09:48;6.55;;;2.10;;
5762;SDS011;2906;53.282;9.508;2023-08-07T04:10:57;4.57;;;1.77;;
5762;SDS011;2906;53.282;9.508;2023-08-07T04:12:00;6.53;;;1.60;;
5762;SDS011;2906;53.282;9.508;2023-08-07T04:13:02;2.55;;;1.70;;
5762;SDS011;2906;53.282;9.508;2023-08-07T04:14:07;3.88;;;1.30;;
5762;SDS011;2906;53.282;9.508;2023-08-07T04:15:11;4.50;;;1.88;;
5762;SDS011;2906;53.282;9.508;2023-08-07T04:16:15;6.65;;;1.67;;
5762;SDS011;2906;53.282;9.508;2023-08-07T04:17:20;4.13;;;1.80;;
5762;SDS011;2906;53.282;9.508;2023-08-07T04:18:24;5.32;;;1.55;;
5762;SDS011;2906;53.282;9.508;2023-08-07T04:19:33;5.35;;;1.98;;
5762;SDS011;2906;53.282;9.508;2023-08-07T04:20:36;3.95;;;1.73;;
5762;SDS011;2906;53.282;9.508;2023-08-07T04:21:40;3.92;;;1.73;;
5762;SDS011;2906;53.282;9.508;2023-08-07T04:22:42;5.03;;;1.75;;
5762;SDS011;2906;53.282;9.508;2023-08-07T04:23:45;1.50;;;1.40;;
5762;SDS011;2906;53.282;9.508;2023-08-07T04:24:47;3.75;;;1.63;;
5762;SDS011;2906;53.282;9.508;2023-08-07T04:27:07;3.47;;;1.92;;
5762;SDS011;2906;53.282;9.508;2023-08-07T04:28:08;2.47;;;1.75;;
5762;SDS011;2906;53.282;9.508;2023-08-07T04:29:10;6.60;;;1.98;;
5762;SDS011;2906;53.282;9.508;2023-08-07T04:30:14;4.88;;;1.45;;
5762;SDS011;2906;53.282;9.508;2023-08-07T04:31:16;2.67;;;1.73;;
5762;SDS011;2906;53.282;9.508;2023-08-07T04:32:28;3.22;;;1.63;;
5762;SDS011;2906;53.282;9.508;2023-08-07T04:33:30;1.98;;;1.52;;
5762;SDS011;2906;53.282;9.508;2023-08-07T04:34:33;3.17;;;1.38;;
5762;SDS011;2906;53.282;9.508;2023-08-07T04:35:35;3.10;;;1.50;;
5762;SDS011;2906;53.282;9.508;2023-08-07T04:36:38;3.33;;;1.50;;
5762;SDS011;2906;53.282;9.508;2023-08-07T04:37:40;6.03;;;1.63;;
5762;SDS011;2906;53.282;9.508;2023-08-07T04:38:43;2.75;;;1.27;;
5762;SDS011;2906;53.282;9.508;2023-08-07T04:39:44;1.73;;;1.33;;
5762;SDS011;2906;53.282;9.508;2023-08-07T04:40:56;3.38;;;1.90;;
5762;SDS011;2906;53.282;9.508;2023-08-07T04:42:04;2.20;;;1.92;;
5762;SDS011;2906;53.282;9.508;2023-08-07T04:43:07;4.05;;;1.70;;
5762;SDS011;2906;53.282;9.508;2023-08-07T04:44:08;2.55;;;1.60;;
5762;SDS011;2906;53.282;9.508;2023-08-07T04:45:14;3.88;;;2.05;;
5762;SDS011;2906;53.282;9.508;2023-08-07T04:46:21;2.95;;;1.80;;
5762;SDS011;2906;53.282;9.508;2023-08-07T04:47:24;3.67;;;1.85;;
5762;SDS011;2906;53.282;9.508;2023-08-07T04:48:26;2.75;;;2.00;;
5762;SDS011;2906;53.282;9.508;2023-08-07T04:49:29;5.15;;;2.40;;
5762;SDS011;2906;53.282;9.508;2023-08-07T04:50:32;2.00;;;1.80;;
5762;SDS011;2906;53.282;9.508;2023-08-07T04:51:38;4.35;;;1.90;;
5762;SDS011;2906;53.282;9.508;2023-08-07T04:52:39;9.23;;;2.50;;
5762;SDS011;2906;53.282;9.508;2023-08-07T04:53:42;2.33;;;2.10;;
5762;SDS011;2906;53.282;9.508;2023-08-07T04:54:43;3.42;;;2.30;;
5762;SDS011;2906;53.282;9.508;2023-08-07T04:55:46;3.78;;;2.40;;
5762;SDS011;2906;53.282;9.508;2023-08-07T04:56:48;5.75;;;3.28;;
5762;SDS011;2906;53.282;9.508;2023-08-07T04:57:52;2.83;;;2.42;;
5762;SDS011;2906;53.282;9.508;2023-08-07T04:58:54;8.05;;;3.20;;
5762;SDS011;2906;53.282;9.508;2023-08-07T04:59:57;5.00;;;2.00;;
5762;SDS011;2906;53.282;9.508;2023-08-07T05:00:59;8.25;;;3.05;;
5762;SDS011;2906;53.282;9.508;2023-08-07T05:02:04;7.18;;;2.85;;
5762;SDS011;2906;53.282;9.508;2023-08-07T05:03:05;5.53;;;3.03;;
5762;SDS011;2906;53.282;9.508;2023-08-07T05:04:14;3.63;;;2.50;;
5762;SDS011;2906;53.282;9.508;2023-08-07T05:05:19;15.77;;;5.28;;
5762;SDS011;2906;53.282;9.508;2023-08-07T05:06:24;3.35;;;2.75;;
5762;SDS011;2906;53.282;9.508;2023-08-07T05:07:26;5.45;;;3.00;;
5762;SDS011;2906;53.282;9.508;2023-08-07T05:08:31;4.35;;;2.65;;
5762;SDS011;2906;53.282;9.508;2023-08-07T05:09:36;7.03;;;2.95;;
5762;SDS011;2906;53.282;9.508;2023-08-07T05:10:38;4.13;;;2.88;;
5762;SDS011;2906;53.282;9.508;2023-08-07T05:11:40;8.73;;;3.28;;
5762;SDS011;2906;53.282;9.508;2023-08-07T05:12:42;5.65;;;2.80;;
5762;SDS011;2906;53.282;9.508;2023-08-07T05:13:43;5.65;;;3.28;;
5762;SDS011;2906;53.282;9.508;2023-08-07T05:14:46;8.10;;;3.50;;
5762;SDS011;2906;53.282;9.508;2023-08-07T05:15:47;3.35;;;3.03;;
5762;SDS011;2906;53.282;9.508;2023-08-07T05:16:50;6.38;;;3.55;;
5762;SDS011;2906;53.282;9.508;2023-08-07T05:17:52;5.97;;;3.25;;
5762;SDS011;2906;53.282;9.508;2023-08-07T05:18:54;6.18;;;3.10;;
5762;SDS011;2906;53.282;9.508;2023-08-07T05:19:56;12.43;;;3.70;;
5762;SDS011;2906;53.282;9.508;2023-08-07T05:20:58;6.03;;;3.33;;
5762;SDS011;2906;53.282;9.508;2023-08-07T05:21:59;9.27;;;3.70;;
5762;SDS011;2906;53.282;9.508;2023-08-07T05:23:02;13.38;;;3.78;;
5762;SDS011;2906;53.282;9.508;2023-08-07T05:24:04;6.65;;;3.72;;
5762;SDS011;2906;53.282;9.508;2023-08-07T05:25:06;5.28;;;3.10;;
5762;SDS011;2906;53.282;9.508;2023-08-07T05:26:09;10.38;;;4.15;;
5762;SDS011;2906;53.282;9.508;2023-08-07T05:27:11;6.47;;;3.80;;
5762;SDS011;2906;53.282;9.508;2023-08-07T05:28:16;14.05;;;3.80;;
5762;SDS011;2906;53.282;9.508;2023-08-07T05:29:18;5.28;;;3.55;;
5762;SDS011;2906;53.282;9.508;2023-08-07T05:30:20;8.38;;;3.28;;
5762;SDS011;2906;53.282;9.508;2023-08-07T05:31:22;8.85;;;3.55;;
5762;SDS011;2906;53.282;9.508;2023-08-07T05:32:24;13.45;;;3.65;;
5762;SDS011;2906;53.282;9.508;2023-08-07T05:33:27;5.43;;;3.30;;
5762;SDS011;2906;53.282;9.508;2023-08-07T05:34:28;9.18;;;3.72;;
5762;SDS011;2906;53.282;9.508;2023-08-07T05:35:31;10.55;;;3.55;;
5762;SDS011;2906;53.282;9.508;2023-08-07T05:36:32;8.85;;;4.10;;
5762;SDS011;2906;53.282;9.508;2023-08-07T05:37:35;18.55;;;3.60;;
5762;SDS011;2906;53.282;9.508;2023-08-07T05:38:36;9.50;;;4.50;;
5762;SDS011;2906;53.282;9.508;2023-08-07T05:39:38;9.35;;;4.03;;
5762;SDS011;2906;53.282;9.508;2023-08-07T05:40:40;6.82;;;2.72;;
5762;SDS011;2906;53.282;9.508;2023-08-07T05:41:42;7.22;;;4.40;;
5762;SDS011;2906;53.282;9.508;2023-08-07T05:42:43;10.65;;;4.88;;
5762;SDS011;2906;53.282;9.508;2023-08-07T05:43:46;13.88;;;4.10;;
5762;SDS011;2906;53.282;9.508;2023-08-07T05:44:47;11.52;;;3.70;;
5762;SDS011;2906;53.282;9.508;2023-08-07T05:45:49;7.30;;;3.67;;
5762;SDS011;2906;53.282;9.508;2023-08-07T05:46:51;9.32;;;3.30;;
5762;SDS011;2906;53.282;9.508;2023-08-07T05:47:53;16.67;;;4.50;;
5762;SDS011;2906;53.282;9.508;2023-08-07T05:48:56;5.82;;;3.80;;
5762;SDS011;2906;53.282;9.508;2023-08-07T05:49:58;10.02;;;3.88;;
5762;SDS011;2906;53.282;9.508;2023-08-07T05:51:00;7.47;;;3.90;;
5762;SDS011;2906;53.282;9.508;2023-08-07T05:52:02;10.48;;;3.75;;
5762;SDS011;2906;53.282;9.508;2023-08-07T05:53:04;8.40;;;4.05;;
5762;SDS011;2906;53.282;9.508;2023-08-07T05:54:07;11.18;;;4.47;;
5762;SDS011;2906;53.282;9.508;2023-08-07T05:55:08;10.52;;;3.22;;
5762;SDS011;2906;53.282;9.508;2023-08-07T05:56:10;6.32;;;3.20;;
5762;SDS011;2906;53.282;9.508;2023-08-07T05:57:12;7.50;;;3.17;;
5762;SDS011;2906;53.282;9.508;2023-08-07T05:58:15;4.68;;;3.10;;
5762;SDS011;2906;53.282;9.508;2023-08-07T05:59:16;7.00;;;3.17;;
5762;SDS011;2906;53.282;9.508;2023-08-07T06:00:19;6.55;;;2.78;;
5762;SDS011;2906;53.282;9.508;2023-08-07T06:01:20;9.82;;;3.47;;
5762;SDS011;2906;53.282;9.508;2023-08-07T06:02:23;8.00;;;3.08;;
5762;SDS011;2906;53.282;9.508;2023-08-07T06:03:25;7.57;;;2.65;;
5762;SDS011;2906;53.282;9.508;2023-08-07T06:04:32;8.52;;;3.17;;
5762;SDS011;2906;53.282;9.508;2023-08-07T06:05:33;7.82;;;3.05;;
5762;SDS011;2906;53.282;9.508;2023-08-07T06:06:36;5.38;;;3.05;;
5762;SDS011;2906;53.282;9.508;2023-08-07T06:07:39;7.50;;;2.53;;
5762;SDS011;2906;53.282;9.508;2023-08-07T06:08:42;6.40;;;2.72;;
5762;SDS011;2906;53.282;9.508;2023-08-07T06:09:43;9.93;;;2.72;;
5762;SDS011;2906;53.282;9.508;2023-08-07T06:10:46;9.57;;;2.70;;
5762;SDS011;2906;53.282;9.508;2023-08-07T06:11:47;4.10;;;2.40;;
5762;SDS011;2906;53.282;9.508;2023-08-07T06:12:50;8.65;;;2.70;;
5762;SDS011;2906;53.282;9.508;2023-08-07T06:13:52;7.40;;;2.53;;
5762;SDS011;2906;53.282;9.508;2023-08-07T06:14:55;4.38;;;2.30;;
5762;SDS011;2906;53.282;9.508;2023-08-07T06:15:56;10.38;;;3.15;;
5762;SDS011;2906;53.282;9.508;2023-08-07T06:16:58;7.55;;;2.20;;
5762;SDS011;2906;53.282;9.508;2023-08-07T06:18:01;8.38;;;2.05;;
5762;SDS011;2906;53.282;9.508;2023-08-07T06:19:04;8.13;;;2.40;;
5762;SDS011;2906;53.282;9.508;2023-08-07T06:20:07;10.25;;;2.17;;
5762;SDS011;2906;53.282;9.508;2023-08-07T06:21:11;8.23;;;2.05;;
5762;SDS011;2906;53.282;9.508;2023-08-07T06:22:12;5.40;;;3.13;;
5762;SDS011;2906;53.282;9.508;2023-08-07T06:23:15;4.20;;;2.00;;
5762;SDS011;2906;53.282;9.508;2023-08-07T06:24:16;5.40;;;2.10;;
5762;SDS011;2906;53.282;9.508;2023-08-07T06:25:18;7.68;;;2.10;;
5762;SDS011;2906;53.282;9.508;2023-08-07T06:26:20;9.30;;;2.20;;
5762;SDS011;2906;53.282;9.508;2023-08-07T06:27:22;2.20;;;1.58;;
5762;SDS011;2906;53.282;9.508;2023-08-07T06:28:24;6.50;;;2.30;;
5762;SDS011;2906;53.282;9.508;2023-08-07T06:29:26;12.55;;;1.95;;
5762;SDS011;2906;53.282;9.508;2023-08-07T06:30:27;7.78;;;1.63;;
5762;SDS011;2906;53.282;9.508;2023-08-07T06:31:30;2.78;;;1.52;;